Vero Beach Municipal Airport
KVRB : now visible

Airfield :











YOU CAN JOIN US ON...

 
LOGIN :

Register | Disclaimer

   EN    FR    IT 

 









Legend :    VFR   Marginal VFR   IFR   Intensive IFR   Very Intensive IFR
Visi :
Ceiling :
>= 8 km
>= 3000ft
5 to 8 km
1000 to 3000 ft
1500m to 5 km
500 to 1000 ft
800 to 1500m
200 to 500 ft
< 800m
< 200 ft
Symbols :   Thunderstorms  Fog  Heavy snow  Heavy precipitations  Wind > 20 kt







- Airport Elevation : 24 ft
- IATA code : VRB


KVRB - Vero Beach Municipal

CURRENT METAR :
  • 170953Z AUTO 30005KT 7SM CLR 23/22 A2990 RMK AO2 SLP124 T02330222

EXPIRED METARs :
  • 170853Z AUTO 30005KT 7SM CLR 24/23 A2989 RMK AO2 SLP119 T02390228 56007
  • 170753Z AUTO 31005KT 7SM CLR 24/23 A2989 RMK AO2 SLP119 T02390228

TAF KVRB
Valid from the 17 at 06:00 until the 18 at 06:00 UTC


170522Z 1706/1806 28005KT P6SM SKC
FM171400 32009KT P6SM FEW030
FM171700 34012G19KT P6SM FEW040
FM172300 02008KT P6SM FEW030
No reported NOTAMs for that airfield.



MET'MAP, your aeronautical weather chart ! - Copyright ORBIFLY December 2007 - Disclaimer

ORBIFLY MET'MAP TEAM :

Programming & Development : Alexandra Zaïnal
Concept & Development : Baudouin d'Aumeries
Co-Development & Prog : Marc-Olivier Méhu
Technical & hardware support : Manuel Goepfert

Contact : metmap@orbifly.com




SOURCES & CREDITS :

   NOAA       Earth
Advisory